createdAt,value
2018-02-03T00:01:18.935Z,94573.95
2018-02-03T00:03:54.507Z,94579.28
2018-02-03T00:09:05.550Z,94583.91
2018-02-03T00:11:36.509Z,94583.11
2018-02-03T00:14:09.681Z,94581.25
2018-02-03T00:16:43.067Z,94580.72
2018-02-03T00:19:17.895Z,94578.34
2018-02-03T00:21:51.495Z,94570.52
2018-02-03T00:24:25.607Z,94576.55
2018-02-03T00:26:58.278Z,94575.69
2018-02-03T00:29:32.042Z,94573.02
2018-02-03T00:32:05.083Z,94564.79
2018-02-03T00:34:38.699Z,94571.94
2018-02-03T00:37:14.817Z,94573.38
2018-02-03T00:39:49.851Z,94572.59
2018-02-03T00:42:24.170Z,94571.21
2018-02-03T00:44:58.212Z,94569.28
2018-02-03T00:52:49.437Z,94564.63
2018-02-03T00:55:24.061Z,94568.59
2018-02-03T00:58:04.469Z,94563.67
2018-02-03T01:00:37.523Z,94562.34
2018-02-03T01:03:11.480Z,94562.59
2018-02-03T01:05:45.312Z,94564.88
2018-02-03T01:10:54.137Z,94564.33
2018-02-03T01:13:28.613Z,94564.48
2018-02-03T01:16:01.705Z,94566.98
2018-02-03T01:18:36.458Z,94563.83
2018-02-03T01:21:09.689Z,94563.02
2018-02-03T01:26:22.502Z,94562.62
2018-02-03T01:28:55.447Z,94559.50
2018-02-03T01:31:27.831Z,94558.16
2018-02-03T01:34:03.531Z,94558.53
2018-02-03T01:36:37.133Z,94558.92
2018-02-03T01:39:10.636Z,94560.20
2018-02-03T01:41:45.778Z,94558.05
2018-02-03T01:46:58.167Z,94553.02
2018-02-03T01:49:31.076Z,94547.89
2018-02-03T01:54:42.347Z,94557.15
2018-02-03T02:05:06.756Z,94540.52
2018-02-03T02:07:38.855Z,94540.31
2018-02-03T02:10:07.867Z,94537.97
2018-02-03T02:12:36.916Z,94538.08
2018-02-03T02:15:06.052Z,94530.97
2018-02-03T02:17:35.122Z,94528.53
2018-02-03T02:20:04.159Z,94523.73
2018-02-03T02:22:33.529Z,94524.82
2018-02-03T02:25:02.570Z,94520.13
2018-02-03T02:27:31.588Z,94515.94
2018-02-03T02:30:01.313Z,94511.25
2018-02-03T02:32:32.597Z,94511.31
2018-02-03T02:35:01.992Z,94507.41
2018-02-03T02:37:31.084Z,94502.38
2018-02-03T02:40:00.110Z,94499.59
2018-02-03T02:42:29.152Z,94492.66
2018-02-03T02:44:58.498Z,94499.53
2018-02-03T02:47:28.042Z,94497.14
2018-02-03T02:49:57.083Z,94495.45
2018-02-03T02:52:27.128Z,94502.69
2018-02-03T02:54:56.149Z,94500.05
2018-02-03T02:57:25.185Z,94497.08
2018-02-03T02:59:54.219Z,94498.40
2018-02-03T03:02:23.274Z,94495.63
2018-02-03T03:04:52.318Z,94494.11
2018-02-03T03:07:21.348Z,94496.13
2018-02-03T03:09:50.395Z,94502.77
2018-02-03T03:12:19.460Z,94506.37
2018-02-03T03:14:48.524Z,94499.89
2018-02-03T03:17:17.573Z,94491.86
2018-02-03T03:19:46.610Z,94490.23
2018-02-03T03:22:15.654Z,94496.42
2018-02-03T03:24:44.709Z,94494.83
2018-02-03T03:27:13.749Z,94488.80
2018-02-03T03:29:42.785Z,94490.05
2018-02-03T03:32:11.825Z,94494.08
2018-02-03T03:34:40.861Z,94491.20
2018-02-03T03:37:09.910Z,94485.85
2018-02-03T03:39:38.941Z,94489.87
2018-02-03T03:42:07.980Z,94481.25
2018-02-03T03:44:37.025Z,94479.86
2018-02-03T03:47:06.059Z,94474.91
2018-02-03T03:49:36.081Z,94473.44
2018-02-03T03:52:05.085Z,94475.09
2018-02-03T03:54:34.130Z,94473.56
2018-02-03T03:57:03.174Z,94472.69
2018-02-03T03:59:32.210Z,94469.17
2018-02-03T04:02:01.280Z,94463.27
2018-02-03T04:04:30.334Z,94466.13
2018-02-03T04:06:59.385Z,94465.33
2018-02-03T04:09:28.505Z,94464.84
2018-02-03T04:11:58.032Z,94469.27
2018-02-03T04:16:07.690Z,94467.80
2018-02-03T04:18:37.943Z,94464.11
2018-02-03T04:21:06.957Z,94464.78
2018-02-03T04:23:35.993Z,94460.21
2018-02-03T04:26:05.017Z,94455.73
2018-02-03T04:28:34.062Z,94459.21
2018-02-03T04:31:03.100Z,94456.90
2018-02-03T04:33:32.147Z,94452.87
2018-02-03T04:36:01.187Z,94448.98
2018-02-03T04:38:30.249Z,94447.08
2018-02-03T04:40:59.269Z,94434.28
2018-02-03T04:43:28.321Z,94434.00
2018-02-03T04:45:57.353Z,94429.27
2018-02-03T04:48:26.397Z,94429.59
2018-02-03T04:53:43.577Z,94436.36
2018-02-03T04:58:47.832Z,94436.36
2018-02-03T05:01:16.856Z,94440.59
2018-02-03T05:03:46.663Z,94438.89
2018-02-03T05:06:15.787Z,94437.91
2018-02-03T05:08:44.825Z,94435.87
2018-02-03T05:11:13.869Z,94433.23
2018-02-03T05:13:42.905Z,94428.97
2018-02-03T05:16:11.956Z,94430.50
2018-02-03T05:18:40.994Z,94430.83
2018-02-03T05:21:10.050Z,94432.02
2018-02-03T05:23:39.075Z,94433.72
2018-02-03T05:26:08.109Z,94435.90
2018-02-03T05:28:37.163Z,94435.09
2018-02-03T05:31:06.201Z,94442.24
2018-02-03T05:33:35.234Z,94436.79
2018-02-03T05:36:04.281Z,94441.30
2018-02-03T05:38:33.321Z,94436.80
2018-02-03T05:41:02.349Z,94438.09
2018-02-03T05:43:32.150Z,94443.74
2018-02-03T05:46:01.201Z,94436.75
2018-02-03T05:48:30.233Z,94439.70
2018-02-03T05:51:00.207Z,94443.48
2018-02-03T05:56:06.254Z,94444.13
2018-02-03T06:01:15.466Z,94446.67
2018-02-03T06:03:46.482Z,94443.15
2018-02-03T06:06:24.313Z,94444.65
2018-02-03T06:08:54.314Z,94444.96
2018-02-03T06:11:37.735Z,94441.23
2018-02-03T06:14:06.789Z,94440.98
2018-02-03T06:19:13.117Z,94442.77
2018-02-03T06:21:45.919Z,94437.41
2018-02-03T06:24:23.906Z,94439.01
2018-02-03T06:26:52.957Z,94441.77
2018-02-03T06:29:37.393Z,94442.48
2018-02-03T06:32:06.434Z,94437.62
2018-02-03T06:37:11.670Z,94438.56
2018-02-03T06:39:40.757Z,94433.92
2018-02-03T06:42:09.786Z,94430.83
2018-02-03T06:44:38.822Z,94429.18
2018-02-03T06:47:08.761Z,94427.48
2018-02-03T06:49:37.809Z,94422.26
2018-02-03T06:52:06.853Z,94433.89
2018-02-03T06:54:35.921Z,94418.00
2018-02-03T06:57:04.936Z,94415.01
2018-02-03T06:59:33.973Z,94415.74
2018-02-03T07:02:03.002Z,94419.33
2018-02-03T07:04:32.087Z,94417.27
2018-02-03T07:07:01.121Z,94417.89
2018-02-03T07:09:30.166Z,94415.69
2018-02-03T07:11:59.226Z,94425.22
2018-02-03T07:14:28.342Z,94430.84
2018-02-03T07:16:57.401Z,94435.50
2018-02-03T07:19:26.441Z,94438.98
2018-02-03T07:21:55.484Z,94440.38
2018-02-03T07:24:24.534Z,94446.59
2018-02-03T07:26:53.739Z,94453.25
2018-02-03T07:29:22.821Z,94454.56
2018-02-03T07:31:51.865Z,94455.00
2018-02-03T07:34:21.852Z,94460.58
2018-02-03T07:36:50.922Z,94457.14
2018-02-03T07:39:21.077Z,94454.73
2018-02-03T07:41:51.301Z,94455.09
2018-02-03T07:44:20.337Z,94459.00
2018-02-03T07:46:49.380Z,94461.34
2018-02-03T07:49:18.433Z,94461.30
2018-02-03T07:51:47.622Z,94467.11
2018-02-03T07:54:16.770Z,94471.08
2018-02-03T07:56:45.812Z,94473.70
2018-02-03T07:59:21.532Z,94468.37
2018-02-03T08:01:50.547Z,94469.05
2018-02-03T08:04:19.628Z,94472.02
2018-02-03T08:06:48.790Z,94472.02
2018-02-03T08:09:17.829Z,94471.38
2018-02-03T08:11:46.890Z,94469.30
2018-02-03T08:14:15.927Z,94466.52
2018-02-03T08:16:44.972Z,94464.48
2018-02-03T08:19:14.018Z,94461.76
2018-02-03T08:21:43.070Z,94459.03
2018-02-03T08:24:12.122Z,94458.13
2018-02-03T08:26:41.165Z,94453.38
2018-02-03T08:29:10.210Z,94456.14
2018-02-03T08:31:39.257Z,94454.20
2018-02-03T08:34:08.301Z,94453.37
2018-02-03T08:36:37.402Z,94448.94
2018-02-03T08:39:06.416Z,94436.77
2018-02-03T08:41:35.808Z,94435.91
2018-02-03T08:44:04.859Z,94439.75
2018-02-03T08:49:09.074Z,94433.81
2018-02-03T08:51:38.109Z,94427.22
2018-02-03T08:54:07.152Z,94425.36
2018-02-03T08:56:36.194Z,94425.02
2018-02-03T08:59:05.217Z,94427.88
2018-02-03T09:01:34.258Z,94427.16
2018-02-03T09:04:03.298Z,94425.54
2018-02-03T09:06:32.338Z,94431.48
2018-02-03T09:09:01.431Z,94428.20
2018-02-03T09:11:30.433Z,94428.16
2018-02-03T09:13:59.474Z,94436.14
2018-02-03T09:16:28.504Z,94433.13
2018-02-03T09:18:57.574Z,94425.09
2018-02-03T09:21:26.630Z,94429.02
2018-02-03T09:23:55.729Z,94434.09
2018-02-03T09:26:24.761Z,94434.78
2018-02-03T09:28:53.772Z,94435.24
2018-02-03T09:31:22.841Z,94432.45
2018-02-03T09:33:51.876Z,94440.84
2018-02-03T09:36:20.921Z,94433.77
2018-02-03T09:38:49.964Z,94443.08
2018-02-03T09:41:18.993Z,94437.31
2018-02-03T09:43:48.030Z,94438.14
2018-02-03T09:46:17.107Z,94438.03
2018-02-03T09:48:46.155Z,94441.42
2018-02-03T09:51:15.204Z,94442.46
2018-02-03T09:53:44.237Z,94444.96
2018-02-03T09:56:13.281Z,94442.28
2018-02-03T09:58:42.317Z,94440.81
2018-02-03T10:01:11.365Z,94446.71
2018-02-03T10:03:40.405Z,94448.19
2018-02-03T10:06:14.977Z,94442.88
2018-02-03T10:08:44.123Z,94441.75
2018-02-03T10:11:13.126Z,94441.69
2018-02-03T10:13:42.223Z,94440.34
2018-02-03T10:16:11.225Z,94436.81
2018-02-03T10:21:15.495Z,94433.35
2018-02-03T10:23:44.658Z,94434.21
2018-02-03T10:26:13.678Z,94428.91
2018-02-03T10:28:42.754Z,94425.22
2018-02-03T10:31:11.745Z,94423.56
2018-02-03T10:33:42.650Z,94420.08
2018-02-03T10:36:11.653Z,94420.14
2018-02-03T10:38:40.678Z,94416.53
2018-02-03T10:43:44.958Z,94415.59
2018-02-03T10:46:13.984Z,94415.50
2018-02-03T10:48:43.029Z,94414.73
2018-02-03T10:51:12.058Z,94413.39
2018-02-03T10:53:41.085Z,94413.08
2018-02-03T10:56:10.125Z,94414.92
2018-02-03T10:58:39.166Z,94406.28
2018-02-03T11:01:10.032Z,94410.62
2018-02-03T11:03:39.088Z,94407.88
2018-02-03T11:08:43.530Z,94401.91
2018-02-03T11:13:48.030Z,94401.65
2018-02-03T11:16:17.214Z,94397.14
2018-02-03T11:18:47.269Z,94396.39
2018-02-03T11:21:16.449Z,94390.54
2018-02-03T11:23:45.476Z,94392.73
2018-02-03T11:26:14.519Z,94388.81
2018-02-03T11:28:43.594Z,94386.34
2018-02-03T11:31:12.640Z,94384.86
2018-02-03T11:33:42.767Z,94384.97
2018-02-03T11:36:11.816Z,94383.67
2018-02-03T11:38:42.069Z,94385.49
2018-02-03T11:41:11.101Z,94381.52
2018-02-03T11:46:15.465Z,94379.33
2018-02-03T11:48:44.506Z,94384.80
2018-02-03T11:51:13.550Z,94387.55
2018-02-03T11:53:44.152Z,94383.47
2018-02-03T11:56:13.217Z,94387.33
2018-02-03T11:58:42.950Z,94384.52
2018-02-03T12:01:11.997Z,94385.76
2018-02-03T12:03:41.862Z,94378.59
2018-02-03T12:06:10.921Z,94385.08
2018-02-03T12:08:41.136Z,94382.66
2018-02-03T12:11:18.676Z,94381.89
2018-02-03T12:13:47.706Z,94378.59
2018-02-03T12:16:16.738Z,94376.67
2018-02-03T12:18:45.785Z,94368.75
2018-02-03T12:23:49.988Z,94364.72
2018-02-03T12:26:19.013Z,94365.78
2018-02-03T12:28:48.045Z,94366.51
2018-02-03T12:31:17.076Z,94361.51
2018-02-03T12:33:46.110Z,94362.67
2018-02-03T12:36:15.223Z,94364.03
2018-02-03T12:38:44.226Z,94363.38
2018-02-03T12:41:13.260Z,94358.42
2018-02-03T12:43:43.096Z,94363.77
2018-02-03T12:48:47.333Z,94366.03
2018-02-03T12:51:16.364Z,94366.88
2018-02-03T12:53:51.004Z,94364.56
2018-02-03T12:56:20.009Z,94370.66
2018-02-03T12:58:49.037Z,94361.64
2018-02-03T13:01:18.068Z,94361.84
2018-02-03T13:03:48.076Z,94369.56
2018-02-03T13:06:17.134Z,94367.30
2018-02-03T13:08:46.160Z,94366.28
2018-02-03T13:11:15.239Z,94361.25
2018-02-03T13:13:44.264Z,94359.59
2018-02-03T13:16:13.315Z,94353.77
2018-02-03T13:18:43.289Z,94356.20
2018-02-03T13:21:12.321Z,94354.83
2018-02-03T13:23:42.081Z,94352.81
2018-02-03T13:26:11.122Z,94355.33
2018-02-03T13:28:41.927Z,94351.37
2018-02-03T13:31:10.952Z,94352.31
2018-02-03T13:33:41.083Z,94356.62
2018-02-03T13:36:12.939Z,94350.26
2018-02-03T13:38:42.049Z,94343.17
2018-02-03T13:41:12.033Z,94343.47
2018-02-03T13:43:41.069Z,94342.39
2018-02-03T13:46:11.140Z,94342.09
2018-02-03T13:48:44.159Z,94341.35
2018-02-03T13:51:13.282Z,94347.13
2018-02-03T13:53:42.321Z,94339.29
2018-02-03T13:56:12.684Z,94346.91
2018-02-03T13:58:41.716Z,94345.78
2018-02-03T14:01:11.692Z,94348.12
2018-02-03T14:03:40.716Z,94347.92
2018-02-03T14:06:10.968Z,94343.03
2018-02-03T14:08:40.011Z,94339.00
2018-02-03T14:11:09.241Z,94334.84
2018-02-03T14:13:38.247Z,94337.73
2018-02-03T14:16:07.313Z,94337.15
2018-02-03T14:18:37.792Z,94331.94
2018-02-03T14:21:06.830Z,94334.06
2018-02-03T14:23:35.861Z,94329.17
2018-02-03T14:26:11.159Z,94331.48
2018-02-03T14:28:40.210Z,94326.94
2018-02-03T14:31:09.898Z,94326.94
2018-02-03T14:33:38.960Z,94328.33
2018-02-03T14:36:08.004Z,94323.89
2018-02-03T14:38:37.086Z,94328.66
2018-02-03T14:41:07.025Z,94331.77
2018-02-03T14:43:36.087Z,94328.02
2018-02-03T14:46:05.112Z,94325.84
2018-02-03T14:48:34.192Z,94319.59
2018-02-03T14:51:04.136Z,94319.78
2018-02-03T14:53:40.743Z,94320.38
2018-02-03T14:56:13.452Z,94318.97
2018-02-03T14:58:46.989Z,94317.20
2018-02-03T15:03:57.000Z,94317.03
2018-02-03T15:09:06.584Z,94317.75
2018-02-03T15:11:39.798Z,94317.73
2018-02-03T15:14:13.657Z,94316.97
2018-02-03T15:16:47.029Z,94313.67
2018-02-03T15:19:16.048Z,94315.63
2018-02-03T15:21:45.136Z,94320.53
2018-02-03T15:24:14.178Z,94317.78
2018-02-03T15:26:43.223Z,94325.69
2018-02-03T15:31:47.635Z,94322.08
2018-02-03T15:34:16.668Z,94325.97
2018-02-03T15:36:45.730Z,94328.30
2018-02-03T15:39:14.909Z,94326.73
2018-02-03T15:41:44.778Z,94328.17
2018-02-03T15:44:14.438Z,94327.12
2018-02-03T15:49:19.650Z,94334.62
2018-02-03T15:51:48.688Z,94340.05
2018-02-03T15:56:53.161Z,94337.02
2018-02-03T15:59:23.212Z,94343.92
2018-02-03T16:01:52.230Z,94347.65
2018-02-03T16:04:26.108Z,94342.72
2018-02-03T16:06:55.129Z,94348.86
2018-02-03T16:09:24.181Z,94348.80
2018-02-03T16:11:53.214Z,94349.84
2018-02-03T16:14:22.303Z,94350.88
2018-02-03T16:16:51.359Z,94356.14
2018-02-03T16:19:20.408Z,94354.84
2018-02-03T16:21:49.440Z,94362.02
2018-02-03T16:24:18.490Z,94359.11
2018-02-03T16:26:47.525Z,94359.05
2018-02-03T16:29:18.790Z,94362.54
2018-02-03T16:31:48.917Z,94363.36
2018-02-03T16:34:17.974Z,94368.98
2018-02-03T16:36:48.981Z,94372.22
2018-02-03T16:41:54.464Z,94385.02
2018-02-03T16:44:27.856Z,94393.86
2018-02-03T16:46:58.998Z,94414.73
2018-02-03T16:49:28.046Z,94419.99
2018-02-03T16:52:04.454Z,94420.27
2018-02-03T16:54:33.480Z,94425.97
2018-02-03T16:59:37.893Z,94419.14
2018-02-03T17:02:09.123Z,94422.44
2018-02-03T17:04:39.123Z,94431.05
2018-02-03T17:07:13.504Z,94426.46
2018-02-03T17:09:42.567Z,94429.77
2018-02-03T17:12:15.171Z,94433.25
2018-02-03T17:14:44.219Z,94432.28
2018-02-03T17:17:13.646Z,94435.42
2018-02-03T17:19:42.688Z,94440.55
2018-02-03T17:22:19.453Z,94442.03
2018-02-03T17:27:24.591Z,94451.20
2018-02-03T17:29:54.560Z,94454.20
2018-02-03T17:32:27.368Z,94456.92
2018-02-03T17:35:00.255Z,94457.52
2018-02-03T17:37:34.854Z,94460.66
2018-02-03T17:40:03.925Z,94458.19
2018-02-03T17:42:32.951Z,94455.75
2018-02-03T17:45:07.488Z,94455.22
2018-02-03T17:47:36.545Z,94455.48
2018-02-03T17:50:10.969Z,94456.28
2018-02-03T17:52:39.985Z,94457.17
2018-02-03T17:55:09.235Z,94461.66
2018-02-03T17:57:44.682Z,94464.80
2018-02-03T18:00:14.684Z,94457.55
2018-02-03T18:02:43.793Z,94465.44
2018-02-03T18:05:13.836Z,94466.03
2018-02-03T18:07:43.786Z,94462.05
2018-02-03T18:10:13.453Z,94466.93
2018-02-03T18:17:58.929Z,94472.00
2018-02-03T18:20:38.914Z,94473.33
2018-02-03T18:23:07.981Z,94480.59
2018-02-03T18:25:41.466Z,94485.76
2018-02-03T18:30:46.761Z,94488.72
2018-02-03T18:33:19.457Z,94488.61
2018-02-03T18:35:49.469Z,94489.41
2018-02-03T18:38:19.458Z,94491.84
2018-02-03T18:40:48.501Z,94490.64
2018-02-03T18:43:18.455Z,94486.48
2018-02-03T18:45:50.602Z,94485.04
2018-02-03T18:48:19.674Z,94486.27
2018-02-03T18:50:48.732Z,94487.55
2018-02-03T18:53:25.242Z,94484.23
2018-02-03T18:55:54.272Z,94485.03
2018-02-03T18:58:25.233Z,94484.23
2018-02-03T19:00:54.274Z,94483.63
2018-02-03T19:03:23.310Z,94486.08
2018-02-03T19:05:52.346Z,94486.02
2018-02-03T19:08:21.415Z,94487.73
2018-02-03T19:13:25.663Z,94490.08
2018-02-03T19:15:58.623Z,94494.40
2018-02-03T19:18:27.683Z,94496.03
2018-02-03T19:21:00.178Z,94498.69
2018-02-03T19:23:29.221Z,94500.80
2018-02-03T19:25:59.155Z,94499.78
2018-02-03T19:28:28.205Z,94502.16
2018-02-03T19:30:57.250Z,94504.89
2018-02-03T19:33:26.302Z,94508.14
2018-02-03T19:36:01.018Z,94505.58
2018-02-03T19:41:06.594Z,94511.20
2018-02-03T19:43:39.373Z,94511.17
2018-02-03T19:46:08.452Z,94511.47
2018-02-03T19:48:45.322Z,94515.80
2018-02-03T19:51:14.388Z,94510.77
2018-02-03T19:56:19.646Z,94516.91
2018-02-03T19:58:50.630Z,94520.06
2018-02-03T20:01:19.682Z,94517.84
2018-02-03T20:03:52.197Z,94515.39
2018-02-03T20:06:21.255Z,94512.25
2018-02-03T20:09:04.489Z,94515.23
2018-02-03T20:11:42.535Z,94518.97
2018-02-03T20:14:11.594Z,94519.39
2018-02-03T20:16:45.464Z,94517.21
2018-02-03T20:19:28.213Z,94519.29
2018-02-03T20:22:04.485Z,94516.95
2018-02-03T20:24:34.516Z,94516.57
2018-02-03T20:29:40.390Z,94531.41
2018-02-03T20:32:15.148Z,94526.84
2018-02-03T20:34:44.207Z,94531.45
2018-02-03T20:37:16.979Z,94531.83
2018-02-03T20:39:46.026Z,94534.44
2018-02-03T20:42:32.534Z,94540.26
2018-02-03T20:47:37.757Z,94546.50
2018-02-03T20:50:34.860Z,94542.55
2018-02-03T20:55:46.200Z,94545.84
2018-02-03T20:58:15.272Z,94548.80
2018-02-03T21:00:44.330Z,94546.38
2018-02-03T21:03:14.335Z,94551.73
2018-02-03T21:05:43.377Z,94546.84
2018-02-03T21:11:11.276Z,94548.80
2018-02-03T21:13:40.344Z,94549.97
2018-02-03T21:16:13.390Z,94556.74
2018-02-03T21:18:42.831Z,94557.81
2018-02-03T21:21:12.560Z,94566.09
2018-02-03T21:23:41.611Z,94566.30
2018-02-03T21:28:49.888Z,94569.19
2018-02-03T21:34:24.090Z,94573.14
2018-02-03T21:36:54.858Z,94575.38
2018-02-03T21:39:27.650Z,94578.58
2018-02-03T21:42:14.304Z,94583.81
2018-02-03T21:44:44.256Z,94583.20
2018-02-03T21:47:15.206Z,94585.09
2018-02-03T21:49:44.253Z,94588.72
2018-02-03T21:52:22.192Z,94587.81
2018-02-03T21:54:51.243Z,94589.26
2018-02-03T21:57:25.157Z,94586.45
2018-02-03T22:00:22.198Z,94587.50
2018-02-03T22:02:57.103Z,94586.75
2018-02-03T22:08:05.547Z,94592.30
2018-02-03T22:10:34.601Z,94594.81
2018-02-03T22:13:05.579Z,94602.50
2018-02-03T22:15:34.634Z,94601.19
2018-02-03T22:18:05.276Z,94601.66
2018-02-03T22:20:34.298Z,94604.92
2018-02-03T22:23:06.014Z,94605.03
2018-02-03T22:25:35.093Z,94608.31
2018-02-03T22:28:07.842Z,94609.73
2018-02-03T22:30:36.900Z,94606.08
2018-02-03T22:33:19.562Z,94610.96
2018-02-03T22:35:48.627Z,94610.93
2018-02-03T22:38:29.662Z,94617.71
2018-02-03T22:40:59.574Z,94618.35
2018-02-03T22:43:28.712Z,94619.31
2018-02-03T22:46:01.119Z,94624.61
2018-02-03T22:48:31.074Z,94623.88
2018-02-03T22:51:00.174Z,94622.74
2018-02-03T22:53:30.125Z,94628.66
2018-02-03T22:56:01.045Z,94624.72
2018-02-03T22:58:33.563Z,94628.72
2018-02-03T23:01:10.014Z,94634.01
2018-02-03T23:03:39.060Z,94634.91
2018-02-03T23:08:48.938Z,94636.41
2018-02-03T23:11:17.949Z,94638.39
2018-02-03T23:13:47.006Z,94637.52
2018-02-03T23:16:16.068Z,94638.70
2018-02-03T23:18:45.117Z,94638.53
2018-02-03T23:21:14.162Z,94639.50
2018-02-03T23:23:43.266Z,94640.45
2018-02-03T23:26:13.219Z,94636.82
2018-02-03T23:28:42.265Z,94638.36
2018-02-03T23:31:11.332Z,94644.23
2018-02-03T23:33:40.372Z,94643.22
2018-02-03T23:36:10.332Z,94642.72
2018-02-03T23:38:39.395Z,94646.62
2018-02-03T23:41:08.453Z,94645.27
2018-02-03T23:43:37.490Z,94649.16
2018-02-03T23:46:09.594Z,94657.56
2018-02-03T23:48:38.665Z,94659.14
2018-02-03T23:53:47.885Z,94657.20
2018-02-03T23:56:25.848Z,94665.46
